Time;durP1;ratioP1;P1;durP2;ratioP2;P2;SDS_P1;SDS_P2;PMS_P1;PMS_P2;Temp;Humidity;BMP_temperature;BMP_pressure;BME280_temperature;BME280_humidity;BME280_pressure;Samples;Min_cycle;Max_cycle;Signal;HPM_P1;HPM_P2
2023/12/14 00:00:08;;;;;;;15.77;9.43;;;6.70;99.90;;;;;;5093379;28;20016;-73
2023/12/14 00:02:34;;;;;;;14.05;9.45;;;6.70;99.90;;;;;;5093449;28;20024;-74
2023/12/14 00:05:00;;;;;;;14.73;9.23;;;6.60;99.90;;;;;;5093354;28;20064;-73
2023/12/14 00:07:25;;;;;;;14.80;8.65;;;6.60;99.90;;;;;;5093324;28;20532;-73
2023/12/14 00:09:50;;;;;;;14.95;9.45;;;6.60;99.90;;;;;;5093209;28;20501;-73
2023/12/14 00:12:16;;;;;;;15.50;9.57;;;6.60;99.90;;;;;;5093449;28;20107;-73
2023/12/14 00:14:41;;;;;;;14.93;9.93;;;6.50;99.90;;;;;;5093205;28;20366;-73
2023/12/14 00:17:07;;;;;;;18.95;11.57;;;6.60;99.90;;;;;;5093269;28;20028;-73
2023/12/14 00:19:33;;;;;;;24.15;13.65;;;6.60;99.90;;;;;;5093269;28;20473;-73
2023/12/14 00:21:58;;;;;;;27.13;14.88;;;6.50;99.90;;;;;;5093362;28;20115;-73
2023/12/14 00:24:23;;;;;;;24.98;15.10;;;6.50;99.90;;;;;;5093342;28;20028;-73
2023/12/14 00:26:49;;;;;;;31.75;16.48;;;6.50;99.90;;;;;;5093323;28;20036;-73
2023/12/14 00:29:14;;;;;;;34.92;18.88;;;6.50;99.90;;;;;;5096831;28;20362;-73
2023/12/14 00:31:40;;;;;;;35.45;18.77;;;6.50;99.90;;;;;;5097197;28;20059;-73
2023/12/14 00:34:06;;;;;;;39.38;20.25;;;6.40;99.90;;;;;;5097121;28;20035;-74
2023/12/14 00:36:32;;;;;;;35.65;19.55;;;6.40;99.90;;;;;;5096958;28;20393;-73
2023/12/14 00:38:58;;;;;;;41.50;20.10;;;6.40;99.90;;;;;;5097120;28;20504;-73
2023/12/14 00:41:23;;;;;;;44.28;19.65;;;6.40;99.90;;;;;;5096936;28;20032;-73
2023/12/14 00:43:49;;;;;;;43.45;21.23;;;6.30;99.90;;;;;;5097249;28;20031;-73
2023/12/14 00:46:14;;;;;;;38.20;19.05;;;6.30;99.90;;;;;;5096806;28;20039;-73
2023/12/14 00:48:40;;;;;;;40.65;21.33;;;6.40;99.90;;;;;;5096760;28;20028;-73
2023/12/14 00:51:06;;;;;;;43.75;22.17;;;6.30;99.90;;;;;;5096885;28;20037;-73
2023/12/14 00:53:31;;;;;;;54.30;25.50;;;6.30;99.90;;;;;;5096392;28;20389;-72
2023/12/14 00:55:57;;;;;;;58.58;25.90;;;6.30;99.90;;;;;;5096799;28;20083;-73
2023/12/14 00:58:22;;;;;;;51.72;24.33;;;6.30;99.90;;;;;;5096681;28;20051;-73
2023/12/14 01:00:48;;;;;;;53.55;26.77;;;6.30;99.90;;;;;;5096711;28;20024;-72
2023/12/14 01:03:13;;;;;;;56.47;26.83;;;6.30;99.90;;;;;;5096657;28;20043;-73
2023/12/14 01:05:39;;;;;;;47.70;24.15;;;6.30;99.90;;;;;;5096585;28;20024;-73
2023/12/14 01:08:05;;;;;;;49.53;24.20;;;6.20;99.90;;;;;;5096416;28;20036;-73
2023/12/14 01:10:31;;;;;;;50.58;23.98;;;6.20;99.90;;;;;;5096523;28;20513;-73
2023/12/14 01:12:56;;;;;;;51.22;23.88;;;6.20;99.90;;;;;;5096477;28;20463;-73
2023/12/14 01:15:22;;;;;;;46.92;24.45;;;6.20;99.90;;;;;;5096239;28;20024;-72
2023/12/14 01:17:47;;;;;;;52.83;23.13;;;6.10;99.90;;;;;;5096392;28;20075;-73
2023/12/14 01:20:13;;;;;;;44.00;21.60;;;6.10;99.90;;;;;;5096205;28;20174;-73
2023/12/14 01:22:38;;;;;;;39.25;19.63;;;6.10;99.90;;;;;;5096240;28;20100;-73
2023/12/14 01:25:04;;;;;;;41.00;19.42;;;6.10;99.90;;;;;;5095978;28;20024;-73
2023/12/14 01:27:29;;;;;;;45.83;19.95;;;6.10;99.90;;;;;;5095980;28;20020;-73
2023/12/14 01:29:55;;;;;;;43.67;21.13;;;6.00;99.90;;;;;;5095782;28;20036;-73
2023/12/14 01:32:21;;;;;;;40.28;19.63;;;6.00;99.90;;;;;;5096237;28;20050;-73
2023/12/14 01:34:46;;;;;;;43.75;21.20;;;6.10;99.90;;;;;;5095999;28;20030;-73
2023/12/14 01:37:12;;;;;;;42.65;19.38;;;6.00;99.90;;;;;;5095656;28;20052;-72
2023/12/14 01:39:37;;;;;;;39.08;18.75;;;6.10;99.90;;;;;;5095033;28;20032;-73
2023/12/14 01:42:03;;;;;;;39.45;18.83;;;6.00;99.90;;;;;;5095876;28;20471;-72
2023/12/14 01:44:28;;;;;;;39.03;18.70;;;6.00;99.90;;;;;;5095858;28;20035;-72
2023/12/14 01:46:54;;;;;;;37.25;18.13;;;6.00;99.90;;;;;;5095821;28;20077;-72
2023/12/14 01:49:19;;;;;;;34.28;18.25;;;6.00;99.90;;;;;;5095690;28;20035;-72
2023/12/14 01:51:45;;;;;;;40.13;18.83;;;5.90;99.90;;;;;;5095652;28;20024;-72
2023/12/14 01:54:11;;;;;;;42.25;20.00;;;5.90;99.90;;;;;;5095451;28;20027;-72
2023/12/14 01:56:36;;;;;;;44.45;20.25;;;5.90;99.90;;;;;;5095652;28;20390;-72
2023/12/14 01:59:02;;;;;;;40.05;18.67;;;5.90;99.90;;;;;;5095729;28;20024;-72
2023/12/14 02:01:52;;;;;;;41.92;18.65;;;5.90;99.90;;;;;;5095490;28;20032;-73
2023/12/14 02:04:18;;;;;;;41.92;19.02;;;5.90;99.90;;;;;;5095309;28;20062;-73
2023/12/14 02:06:43;;;;;;;36.35;18.67;;;5.80;99.90;;;;;;5095334;28;20071;-73
2023/12/14 02:09:09;;;;;;;34.95;17.30;;;5.80;99.90;;;;;;5095138;28;20031;-73
2023/12/14 02:11:35;;;;;;;38.97;18.45;;;5.80;99.90;;;;;;5095308;28;20099;-73
2023/12/14 02:14:05;;;;;;;36.97;17.13;;;5.80;99.90;;;;;;5095264;28;20109;-73
2023/12/14 02:16:31;;;;;;;40.47;18.08;;;5.70;99.90;;;;;;5095132;28;20035;-74
2023/12/14 02:18:57;;;;;;;39.15;18.98;;;5.80;99.90;;;;;;5095234;28;20097;-73
2023/12/14 02:21:22;;;;;;;37.67;17.77;;;5.80;99.90;;;;;;5095266;28;20024;-72
2023/12/14 02:23:48;;;;;;;39.65;18.35;;;5.80;99.90;;;;;;5095182;28;20085;-73
2023/12/14 02:26:14;;;;;;;37.70;18.85;;;5.80;99.90;;;;;;5094920;28;20093;-73
2023/12/14 02:28:39;;;;;;;38.30;19.02;;;5.70;99.90;;;;;;5094424;28;20122;-73
2023/12/14 02:31:05;;;;;;;41.67;17.95;;;5.70;99.90;;;;;;5094763;28;20059;-73
2023/12/14 02:33:31;;;;;;;45.22;19.60;;;5.70;99.90;;;;;;5094924;28;20481;-73
2023/12/14 02:35:56;;;;;;;39.92;19.08;;;5.70;99.90;;;;;;5094858;28;20036;-73
2023/12/14 02:38:22;;;;;;;43.33;19.90;;;5.70;99.90;;;;;;5094368;28;20130;-73
2023/12/14 02:40:50;;;;;;;40.03;18.85;;;5.60;99.90;;;;;;5094764;28;20032;-73
2023/12/14 02:43:16;;;;;;;38.75;18.98;;;5.60;99.90;;;;;;5094651;28;20510;-73
2023/12/14 02:45:41;;;;;;;38.50;18.65;;;5.60;99.90;;;;;;5094625;28;20097;-73
2023/12/14 02:48:07;;;;;;;41.33;18.83;;;5.60;99.90;;;;;;5094413;28;20114;-74
2023/12/14 02:50:32;;;;;;;41.22;18.23;;;5.60;99.90;;;;;;5094432;28;20024;-73
2023/12/14 02:52:58;;;;;;;42.78;20.27;;;5.60;99.90;;;;;;5094620;28;20567;-73
2023/12/14 02:55:24;;;;;;;42.83;19.67;;;5.60;99.90;;;;;;5094456;28;20032;-73
2023/12/14 02:57:49;;;;;;;42.60;21.20;;;5.60;99.90;;;;;;5094594;28;20024;-74
2023/12/14 03:00:15;;;;;;;42.45;19.58;;;5.60;99.90;;;;;;5094105;28;20032;-73
2023/12/14 03:02:40;;;;;;;41.78;19.40;;;5.60;99.90;;;;;;5094120;28;20035;-73
2023/12/14 03:05:06;;;;;;;48.17;21.30;;;5.60;99.90;;;;;;5094145;28;20028;-73
2023/12/14 03:07:34;;;;;;;51.20;21.17;;;5.60;99.90;;;;;;5094234;28;20043;-73
2023/12/14 03:10:00;;;;;;;47.28;21.80;;;5.60;99.90;;;;;;5093883;28;20071;-73
2023/12/14 03:12:25;;;;;;;47.33;20.58;;;5.60;99.90;;;;;;5094242;28;20052;-73
2023/12/14 03:14:51;;;;;;;52.00;23.67;;;5.60;99.90;;;;;;5094264;28;20055;-73
2023/12/14 03:17:17;;;;;;;52.47;22.83;;;5.60;99.90;;;;;;5094058;28;20060;-73
2023/12/14 03:19:42;;;;;;;48.28;21.90;;;5.60;99.90;;;;;;5093877;28;20035;-73
2023/12/14 03:22:09;;;;;;;47.22;20.13;;;5.60;99.90;;;;;;5093805;28;20024;-73
2023/12/14 03:24:35;;;;;;;40.95;18.20;;;5.60;99.90;;;;;;5093992;28;20516;-74
2023/12/14 03:27:02;;;;;;;31.23;15.40;;;5.50;99.90;;;;;;5093949;28;20166;-73
2023/12/14 03:29:28;;;;;;;33.80;16.45;;;5.40;99.90;;;;;;5093717;28;20020;-74
2023/12/14 03:31:55;;;;;;;31.55;14.73;;;5.50;99.90;;;;;;5093788;28;20035;-73
2023/12/14 03:34:21;;;;;;;33.28;16.63;;;5.50;99.90;;;;;;5093752;28;20024;-73
2023/12/14 03:36:46;;;;;;;26.88;14.80;;;5.40;99.90;;;;;;5093366;28;20054;-73
2023/12/14 03:39:12;;;;;;;28.23;13.80;;;5.40;99.90;;;;;;5093691;28;20419;-73
2023/12/14 03:41:37;;;;;;;29.80;14.38;;;5.40;99.90;;;;;;5093738;28;20032;-74
2023/12/14 03:44:03;;;;;;;27.92;13.85;;;5.40;99.90;;;;;;5093666;28;20034;-73
2023/12/14 03:46:29;;;;;;;28.33;14.50;;;5.40;99.90;;;;;;5093520;28;20473;-73
2023/12/14 03:48:55;;;;;;;27.30;13.93;;;5.30;99.90;;;;;;5093397;28;20031;-73
2023/12/14 03:51:20;;;;;;;30.50;14.73;;;5.30;99.90;;;;;;5093650;28;20020;-73
2023/12/14 03:53:46;;;;;;;27.52;13.75;;;5.40;99.90;;;;;;5093566;28;20405;-73
2023/12/14 03:56:12;;;;;;;28.98;13.88;;;5.30;99.90;;;;;;5093488;28;20024;-73
2023/12/14 03:58:37;;;;;;;27.98;14.15;;;5.30;99.90;;;;;;5093539;28;20028;-73
2023/12/14 04:01:03;;;;;;;28.67;14.35;;;5.30;99.90;;;;;;5092990;28;20035;-73
2023/12/14 04:03:29;;;;;;;27.48;14.35;;;5.40;99.90;;;;;;5093010;28;20165;-73
2023/12/14 04:05:54;;;;;;;34.38;14.95;;;5.30;99.90;;;;;;5093466;28;20036;-73
2023/12/14 04:08:20;;;;;;;29.95;15.63;;;5.30;99.90;;;;;;5093357;28;20028;-73
2023/12/14 04:10:45;;;;;;;30.25;15.80;;;5.30;99.90;;;;;;5093292;28;20016;-73
2023/12/14 04:13:11;;;;;;;33.17;17.02;;;5.30;99.90;;;;;;5093300;28;20039;-73
2023/12/14 04:15:37;;;;;;;31.95;15.02;;;5.30;99.90;;;;;;5093369;28;20024;-73
2023/12/14 04:18:02;;;;;;;36.03;15.90;;;5.30;99.90;;;;;;5093250;28;20028;-73
2023/12/14 04:20:28;;;;;;;34.40;16.75;;;5.30;99.90;;;;;;5093323;28;20081;-73
2023/12/14 04:22:53;;;;;;;35.88;17.58;;;5.30;99.90;;;;;;5092801;28;20025;-73
2023/12/14 04:25:19;;;;;;;38.83;19.05;;;5.30;99.90;;;;;;5093338;28;20039;-73
2023/12/14 04:27:44;;;;;;;41.30;20.00;;;5.30;99.90;;;;;;5093158;28;20024;-73
2023/12/14 04:30:11;;;;;;;42.28;20.15;;;5.30;99.90;;;;;;5092673;28;20405;-73
2023/12/14 04:32:38;;;;;;;40.10;21.08;;;5.30;99.90;;;;;;5093267;28;20065;-73
2023/12/14 04:35:04;;;;;;;38.30;19.23;;;5.30;99.90;;;;;;5093145;28;20588;-73
2023/12/14 04:37:30;;;;;;;36.95;18.23;;;5.30;99.90;;;;;;5092816;28;20409;-73
2023/12/14 04:39:57;;;;;;;37.35;16.83;;;5.30;99.90;;;;;;5092822;28;20024;-73
2023/12/14 04:42:22;;;;;;;38.20;18.90;;;5.30;99.90;;;;;;5093135;28;20481;-73
2023/12/14 04:44:48;;;;;;;37.08;16.80;;;5.20;99.90;;;;;;5092990;28;20092;-73
2023/12/14 04:47:13;;;;;;;29.60;14.68;;;5.20;99.90;;;;;;5093097;28;20036;-73
2023/12/14 04:49:39;;;;;;;28.95;14.85;;;5.20;99.90;;;;;;5092816;28;20099;-73
2023/12/14 04:52:05;;;;;;;25.77;13.93;;;5.20;99.90;;;;;;5092764;28;20028;-73
2023/12/14 04:54:31;;;;;;;26.67;13.73;;;5.20;99.90;;;;;;5092961;28;20108;-73
2023/12/14 04:56:56;;;;;;;25.23;13.80;;;5.20;99.90;;;;;;5092826;28;20024;-73
2023/12/14 04:59:22;;;;;;;27.73;14.98;;;5.20;99.90;;;;;;5093020;28;20111;-74
2023/12/14 05:01:47;;;;;;;26.75;14.63;;;5.20;99.90;;;;;;5092757;28;20028;-73
2023/12/14 05:04:13;;;;;;;30.27;15.65;;;5.20;99.90;;;;;;5092827;28;20027;-73
2023/12/14 05:06:39;;;;;;;28.83;14.82;;;5.10;99.90;;;;;;5092804;28;20063;-74
2023/12/14 05:09:05;;;;;;;27.83;15.35;;;5.10;99.90;;;;;;5092332;28;20038;-73
2023/12/14 05:11:31;;;;;;;29.83;14.60;;;5.10;99.90;;;;;;5092869;28;20111;-73
2023/12/14 05:13:57;;;;;;;26.05;14.23;;;5.10;99.90;;;;;;5092504;28;20055;-73
2023/12/14 05:16:26;;;;;;;27.33;15.20;;;5.10;99.90;;;;;;5096383;28;20032;-73
2023/12/14 05:18:52;;;;;;;29.02;15.70;;;5.10;99.90;;;;;;5096366;28;20028;-73
2023/12/14 05:21:18;;;;;;;29.10;16.08;;;5.10;99.90;;;;;;5096313;28;20473;-73
2023/12/14 05:23:44;;;;;;;27.35;14.57;;;5.10;99.90;;;;;;5096229;28;20035;-73
2023/12/14 05:26:10;;;;;;;29.05;14.48;;;5.10;99.90;;;;;;5096235;28;20028;-73
2023/12/14 05:28:35;;;;;;;27.58;14.93;;;5.10;99.90;;;;;;5096053;28;20460;-73
2023/12/14 05:31:01;;;;;;;25.90;14.13;;;5.10;99.90;;;;;;5096307;28;20038;-73
2023/12/14 05:33:27;;;;;;;26.95;14.70;;;5.20;99.90;;;;;;5096268;28;20028;-73
2023/12/14 05:35:52;;;;;;;24.77;13.02;;;5.10;99.90;;;;;;5096315;28;20024;-73
2023/12/14 05:38:18;;;;;;;29.60;14.50;;;5.10;99.90;;;;;;5095561;28;20048;-73
2023/12/14 05:40:43;;;;;;;23.00;13.73;;;5.10;99.90;;;;;;5095870;28;20058;-73
2023/12/14 05:43:10;;;;;;;24.77;14.02;;;5.10;99.90;;;;;;5095924;28;20447;-73
2023/12/14 05:45:35;;;;;;;25.48;14.32;;;5.10;99.90;;;;;;5095724;28;20034;-73
2023/12/14 05:48:01;;;;;;;23.90;13.75;;;5.10;99.90;;;;;;5095835;28;20115;-73
2023/12/14 05:50:27;;;;;;;22.75;13.30;;;5.10;99.90;;;;;;5095986;28;20027;-73
2023/12/14 05:52:53;;;;;;;23.15;13.32;;;5.10;99.90;;;;;;5095851;28;20028;-73
2023/12/14 05:55:21;;;;;;;21.52;13.02;;;5.10;99.90;;;;;;5095692;28;20072;-73
2023/12/14 05:57:47;;;;;;;20.98;12.05;;;5.10;99.90;;;;;;5095471;28;20016;-73
2023/12/14 06:00:13;;;;;;;23.05;11.93;;;5.10;99.90;;;;;;5095157;28;20114;-73
2023/12/14 06:02:39;;;;;;;21.25;12.07;;;5.10;99.90;;;;;;5095575;28;20108;-73
2023/12/14 06:05:06;;;;;;;20.35;12.70;;;5.00;99.90;;;;;;5095551;28;20367;-73
2023/12/14 06:07:32;;;;;;;23.77;14.02;;;5.00;99.90;;;;;;5095485;28;20028;-73
2023/12/14 06:09:58;;;;;;;21.85;12.75;;;5.10;99.90;;;;;;5095272;28;20024;-73
2023/12/14 06:12:23;;;;;;;25.70;13.70;;;5.10;99.90;;;;;;5095361;28;20027;-73
2023/12/14 06:14:49;;;;;;;24.50;14.00;;;5.10;99.90;;;;;;5095274;28;20115;-73
2023/12/14 06:17:15;;;;;;;25.35;14.55;;;5.00;99.90;;;;;;5095241;28;20470;-73
2023/12/14 06:19:41;;;;;;;23.45;13.40;;;5.00;99.90;;;;;;5095175;28;20043;-73
2023/12/14 06:22:07;;;;;;;27.02;14.07;;;5.00;99.90;;;;;;5094810;28;20024;-73
2023/12/14 06:24:33;;;;;;;27.55;14.50;;;5.00;99.90;;;;;;5094986;28;20036;-73
2023/12/14 06:26:58;;;;;;;24.63;14.05;;;5.00;99.90;;;;;;5094650;28;20035;-73
2023/12/14 06:29:24;;;;;;;27.50;15.73;;;4.90;99.90;;;;;;5094907;28;20036;-73
2023/12/14 06:31:50;;;;;;;26.85;14.93;;;4.90;99.90;;;;;;5094927;28;20035;-73
2023/12/14 06:34:16;;;;;;;25.73;14.45;;;4.90;99.90;;;;;;5095159;28;20031;-74
2023/12/14 06:36:44;;;;;;;27.13;16.13;;;4.90;99.90;;;;;;5094425;28;20044;-73
2023/12/14 06:39:10;;;;;;;27.13;14.65;;;5.00;99.90;;;;;;5094792;28;20035;-73
2023/12/14 06:41:36;;;;;;;26.80;14.65;;;5.00;99.90;;;;;;5094759;28;20028;-73
2023/12/14 06:44:02;;;;;;;26.42;15.68;;;5.00;99.90;;;;;;5094656;28;20067;-73
2023/12/14 06:46:27;;;;;;;31.98;15.07;;;5.00;99.90;;;;;;5094581;28;20028;-73
2023/12/14 06:48:53;;;;;;;26.75;14.95;;;5.00;99.90;;;;;;5094477;28;20366;-73
2023/12/14 06:51:19;;;;;;;31.35;15.60;;;5.00;99.90;;;;;;5094496;28;20032;-73
2023/12/14 06:53:45;;;;;;;26.77;15.60;;;5.00;99.90;;;;;;5094467;28;20107;-73
2023/12/14 06:56:11;;;;;;;27.98;16.02;;;5.00;99.90;;;;;;5094293;28;20027;-73
2023/12/14 06:58:41;;;;;;;31.73;18.40;;;5.00;99.90;;;;;;5094337;28;20032;-73
2023/12/14 07:01:08;;;;;;;26.95;15.60;;;5.00;99.90;;;;;;5094471;28;20389;-73
2023/12/14 07:03:33;;;;;;;27.42;15.05;;;5.00;99.90;;;;;;5094394;28;20024;-73
2023/12/14 07:05:59;;;;;;;28.75;15.95;;;5.00;99.90;;;;;;5094114;28;20550;-74
2023/12/14 07:08:25;;;;;;;27.35;15.77;;;5.00;99.90;;;;;;5093804;28;20538;-74
2023/12/14 07:10:50;;;;;;;27.77;15.35;;;4.90;99.90;;;;;;5094009;28;20049;-73
2023/12/14 07:13:16;;;;;;;27.27;14.88;;;5.00;99.90;;;;;;5093974;28;20024;-73
2023/12/14 07:15:42;;;;;;;27.67;15.80;;;5.00;99.90;;;;;;5094191;28;20032;-73
2023/12/14 07:18:07;;;;;;;30.40;15.95;;;5.00;99.90;;;;;;5093981;28;20455;-73
2023/12/14 07:20:33;;;;;;;27.00;15.52;;;5.00;99.90;;;;;;5093809;28;20051;-73
2023/12/14 07:22:58;;;;;;;28.45;16.13;;;5.00;99.90;;;;;;5094021;28;20508;-73
2023/12/14 07:25:24;;;;;;;32.47;17.40;;;4.90;99.90;;;;;;5093815;28;20024;-73
2023/12/14 07:27:50;;;;;;;30.05;16.23;;;4.90;99.90;;;;;;5093692;28;20024;-73
2023/12/14 07:30:16;;;;;;;29.05;16.75;;;5.00;99.90;;;;;;5093886;28;20123;-73
2023/12/14 07:32:42;;;;;;;29.77;17.20;;;5.00;99.90;;;;;;5089735;28;20119;-73
2023/12/14 07:35:08;;;;;;;29.67;16.08;;;5.00;99.90;;;;;;5078979;28;20024;-73
2023/12/14 07:37:33;;;;;;;34.15;18.08;;;5.00;99.90;;;;;;5080079;28;20505;-73
2023/12/14 07:39:59;;;;;;;35.15;18.13;;;5.00;99.90;;;;;;5091724;28;20142;-74
2023/12/14 07:42:25;;;;;;;30.95;17.35;;;5.00;99.90;;;;;;5078724;28;20031;-73
2023/12/14 07:44:51;;;;;;;34.63;18.30;;;5.00;99.90;;;;;;5082934;28;20097;-73
2023/12/14 07:47:16;;;;;;;33.00;18.02;;;4.90;99.90;;;;;;5093572;28;20063;-73
2023/12/14 07:49:42;;;;;;;34.17;17.98;;;5.00;99.90;;;;;;5093303;28;20056;-73
2023/12/14 07:52:08;;;;;;;35.92;20.08;;;5.00;99.90;;;;;;5093530;28;20097;-73
2023/12/14 07:54:34;;;;;;;37.65;19.23;;;5.00;99.90;;;;;;5093600;28;20051;-73
2023/12/14 07:57:00;;;;;;;38.80;20.08;;;5.00;99.90;;;;;;5093533;28;20020;-73
2023/12/14 07:59:25;;;;;;;38.97;20.02;;;5.00;99.90;;;;;;5092925;28;20123;-73
2023/12/14 08:01:51;;;;;;;39.03;20.90;;;4.90;99.90;;;;;;5093321;28;20032;-73
2023/12/14 08:04:16;;;;;;;38.50;20.65;;;5.00;99.90;;;;;;5093356;28;20055;-72
2023/12/14 08:06:42;;;;;;;43.55;22.65;;;5.00;99.90;;;;;;5093149;28;20370;-73
2023/12/14 08:09:07;;;;;;;39.67;21.10;;;5.00;99.90;;;;;;5093138;28;20027;-72
2023/12/14 08:11:33;;;;;;;41.78;22.38;;;5.00;99.90;;;;;;5093346;28;20031;-73
2023/12/14 08:13:59;;;;;;;38.17;20.88;;;4.90;99.90;;;;;;5093348;28;20024;-72
2023/12/14 08:16:24;;;;;;;41.28;21.30;;;4.90;99.90;;;;;;5092755;28;20119;-72
2023/12/14 08:18:50;;;;;;;38.63;21.05;;;4.80;99.90;;;;;;5093300;28;20028;-72
2023/12/14 08:21:16;;;;;;;43.20;21.77;;;4.90;99.90;;;;;;5093465;28;20051;-72
2023/12/14 08:23:42;;;;;;;37.90;20.48;;;4.90;99.90;;;;;;5093086;28;20485;-73
2023/12/14 08:26:10;;;;;;;40.47;21.35;;;4.90;99.90;;;;;;5093063;28;20538;-74
2023/12/14 08:28:35;;;;;;;39.17;20.05;;;4.90;99.90;;;;;;5092803;28;20473;-73
2023/12/14 08:31:02;;;;;;;41.85;21.42;;;4.90;99.90;;;;;;5093314;28;20197;-74
2023/12/14 08:33:28;;;;;;;40.08;21.58;;;4.90;99.90;;;;;;5093021;28;20474;-73
2023/12/14 08:35:55;;;;;;;37.25;20.92;;;4.90;99.90;;;;;;5092792;28;20024;-73
2023/12/14 08:38:21;;;;;;;41.17;21.58;;;4.90;99.90;;;;;;5092611;28;20433;-74
2023/12/14 08:40:46;;;;;;;41.80;20.52;;;4.90;99.90;;;;;;5084879;28;20029;-74
2023/12/14 08:43:12;;;;;;;37.30;19.25;;;4.90;99.90;;;;;;5086227;28;20031;-73
2023/12/14 08:45:37;;;;;;;39.65;21.83;;;4.90;99.90;;;;;;5075288;28;20025;-74
2023/12/14 08:48:03;;;;;;;40.33;21.02;;;5.00;99.90;;;;;;5073237;28;20107;-73
2023/12/14 08:50:29;;;;;;;38.42;20.20;;;4.90;99.90;;;;;;5076587;28;20025;-74
2023/12/14 08:52:55;;;;;;;40.17;20.88;;;4.90;99.90;;;;;;5090398;28;20027;-74
2023/12/14 08:55:21;;;;;;;44.55;22.35;;;5.00;99.90;;;;;;5096710;28;20024;-74
2023/12/14 08:57:47;;;;;;;40.08;21.20;;;4.80;99.90;;;;;;5096581;28;20031;-74
2023/12/14 09:00:13;;;;;;;40.25;21.15;;;4.90;99.90;;;;;;5096592;28;20469;-73
2023/12/14 09:02:38;;;;;;;45.70;22.70;;;4.80;99.90;;;;;;5096172;28;20423;-74
2023/12/14 09:05:05;;;;;;;40.03;21.75;;;4.80;99.90;;;;;;5096215;28;20024;-73
2023/12/14 09:07:31;;;;;;;42.80;22.67;;;4.90;99.90;;;;;;5096508;28;20028;-74
2023/12/14 09:09:56;;;;;;;41.05;22.23;;;4.90;99.90;;;;;;5096275;28;20039;-74
2023/12/14 09:12:22;;;;;;;37.65;20.80;;;5.00;99.90;;;;;;5089367;28;20032;-73
2023/12/14 09:14:48;;;;;;;41.88;22.42;;;5.00;99.90;;;;;;5082312;28;20394;-74
2023/12/14 09:17:13;;;;;;;39.13;22.30;;;4.90;99.90;;;;;;5084221;28;20040;-73
2023/12/14 09:19:39;;;;;;;45.40;24.10;;;4.90;99.90;;;;;;5096067;28;20393;-74
2023/12/14 09:22:05;;;;;;;38.67;21.38;;;4.90;99.90;;;;;;5096139;28;20039;-73
2023/12/14 09:24:30;;;;;;;35.38;20.23;;;4.90;99.90;;;;;;5095621;28;20056;-73
2023/12/14 09:26:56;;;;;;;30.55;18.05;;;4.90;99.90;;;;;;5096198;28;20027;-74
2023/12/14 09:29:21;;;;;;;30.63;17.95;;;4.90;99.90;;;;;;5095560;28;20039;-73
2023/12/14 09:31:47;;;;;;;30.95;17.55;;;4.90;99.90;;;;;;5096041;28;20067;-74
2023/12/14 09:34:13;;;;;;;33.70;18.40;;;4.90;99.90;;;;;;5095947;28;20107;-73
2023/12/14 09:36:39;;;;;;;35.08;19.20;;;4.90;99.90;;;;;;5095552;28;20044;-73
2023/12/14 09:39:05;;;;;;;42.47;21.27;;;5.00;99.90;;;;;;5095513;28;20119;-73
2023/12/14 09:41:31;;;;;;;40.85;21.63;;;4.90;99.90;;;;;;5096010;28;20114;-73
2023/12/14 09:43:56;;;;;;;46.05;22.92;;;5.00;99.90;;;;;;5095882;28;20119;-73
2023/12/14 09:46:25;;;;;;;42.05;22.50;;;5.00;99.90;;;;;;5095771;28;20024;-72
2023/12/14 09:48:51;;;;;;;44.65;22.10;;;5.00;99.90;;;;;;5095587;28;20470;-73
2023/12/14 09:51:16;;;;;;;44.53;22.25;;;5.00;99.90;;;;;;5095666;28;20016;-73
2023/12/14 09:53:42;;;;;;;47.70;22.65;;;5.00;99.90;;;;;;5095507;28;20042;-73
2023/12/14 09:56:08;;;;;;;45.08;22.75;;;5.00;99.90;;;;;;5095607;28;20024;-73
2023/12/14 09:58:34;;;;;;;39.38;20.52;;;5.00;99.90;;;;;;5095633;28;20028;-73
2023/12/14 10:01:01;;;;;;;42.17;21.30;;;5.10;99.90;;;;;;5094594;28;20470;-73
2023/12/14 10:03:28;;;;;;;40.33;21.25;;;5.10;99.90;;;;;;5095587;28;20028;-73
2023/12/14 10:05:55;;;;;;;35.75;20.35;;;5.10;99.90;;;;;;5095208;28;20028;-73
2023/12/14 10:08:21;;;;;;;36.10;20.10;;;5.10;99.90;;;;;;5094602;28;20089;-73
2023/12/14 10:10:49;;;;;;;35.35;20.48;;;5.10;99.90;;;;;;5095292;28;20107;-73
2023/12/14 10:13:15;;;;;;;33.58;20.00;;;5.20;99.90;;;;;;5095310;28;20028;-73
2023/12/14 10:15:44;;;;;;;32.58;19.70;;;5.10;99.90;;;;;;5095420;28;20057;-74
2023/12/14 10:18:09;;;;;;;29.65;18.75;;;5.10;99.90;;;;;;5095289;28;20458;-74
2023/12/14 10:20:37;;;;;;;34.35;20.17;;;5.10;99.90;;;;;;5095003;28;20024;-74
2023/12/14 10:23:04;;;;;;;33.28;18.77;;;5.00;99.90;;;;;;5095103;28;20032;-74
2023/12/14 10:25:29;;;;;;;30.33;18.58;;;5.00;99.90;;;;;;5095135;28;20035;-74
2023/12/14 10:27:57;;;;;;;30.95;19.15;;;5.00;99.90;;;;;;5094636;28;20416;-74
2023/12/14 10:30:22;;;;;;;31.13;19.42;;;5.10;99.90;;;;;;5094542;28;20035;-74
2023/12/14 10:32:49;;;;;;;31.88;18.52;;;5.00;99.90;;;;;;5094829;28;20028;-74
2023/12/14 10:35:19;;;;;;;30.05;18.95;;;5.10;99.90;;;;;;5094129;28;20028;-74
2023/12/14 10:37:46;;;;;;;34.33;20.00;;;5.00;99.90;;;;;;5094214;28;20086;-74
2023/12/14 10:40:13;;;;;;;32.00;19.75;;;5.10;99.90;;;;;;5094212;28;20028;-74
2023/12/14 10:42:42;;;;;;;33.42;20.55;;;5.10;99.90;;;;;;5094838;28;20474;-74
2023/12/14 10:45:12;;;;;;;30.60;18.08;;;5.10;99.90;;;;;;5094753;28;20024;-74
2023/12/14 10:47:42;;;;;;;29.23;18.58;;;5.10;99.90;;;;;;5094413;28;20036;-74
2023/12/14 10:50:11;;;;;;;34.90;18.30;;;5.10;99.90;;;;;;5094041;28;20021;-74
2023/12/14 10:52:39;;;;;;;32.53;18.58;;;5.20;99.90;;;;;;5094526;28;20390;-74
2023/12/14 10:55:08;;;;;;;30.23;18.10;;;5.20;99.90;;;;;;5094589;28;20024;-74
2023/12/14 10:57:34;;;;;;;30.50;19.15;;;;;;;;;;5094498;28;20024;-74
2023/12/14 11:00:01;;;;;;;34.97;18.92;;;;;;;;;;5094394;28;20055;-74
2023/12/14 11:02:28;;;;;;;31.88;17.88;;;;;;;;;;5094354;28;20024;-74
2023/12/14 11:04:56;;;;;;;30.80;18.42;;;;;;;;;;5094306;28;20028;-74
2023/12/14 11:07:43;;;;;;;31.67;17.98;;;;;;;;;;5094302;28;20515;-74
2023/12/14 11:10:10;;;;;;;31.77;18.00;;;;;;;;;;5093722;28;20118;-74
2023/12/14 11:12:37;;;;;;;27.98;17.45;;;;;;;;;;5094159;28;20486;-74
2023/12/14 11:15:04;;;;;;;31.35;17.33;;;;;;;;;;5093855;28;20078;-74
2023/12/14 11:17:31;;;;;;;29.52;18.02;;;;;;;;;;5094028;28;20470;-74
2023/12/14 11:19:58;;;;;;;32.65;19.52;;;;;;;;;;5094132;28;20048;-73
2023/12/14 11:22:27;;;;;;;31.75;18.73;;;;;;;;;;5093939;28;20064;-74
2023/12/14 11:24:54;;;;;;;32.28;19.02;;;;;;;;;;5092565;28;20058;-74
2023/12/14 11:27:22;;;;;;;33.90;20.45;;;;;;;;;;5082010;28;20059;-74
2023/12/14 11:29:50;;;;;;;36.22;20.25;;;;;;;;;;5082479;28;20031;-74
2023/12/14 11:32:18;;;;;;;31.92;18.65;;;;;;;;;;5082721;28;20023;-74
2023/12/14 11:34:47;;;;;;;32.47;19.23;;;;;;;;;;5081341;28;20032;-74
2023/12/14 11:37:14;;;;;;;31.00;18.60;;;;;;;;;;5087454;28;21543;-74
2023/12/14 11:39:43;;;;;;;32.72;19.85;;;;;;;;;;5083772;28;20472;-74
2023/12/14 11:42:10;;;;;;;31.58;18.58;;;;;;;;;;5078791;28;20541;-74
2023/12/14 11:44:39;;;;;;;32.95;20.45;;;;;;;;;;5073400;28;20029;-74
2023/12/14 11:47:05;;;;;;;32.08;19.35;;;;;;;;;;5075882;28;20440;-73
2023/12/14 11:49:32;;;;;;;33.72;19.67;;;;;;;;;;5075277;28;20463;-74
2023/12/14 11:51:59;;;;;;;31.90;18.80;;;;;;;;;;5075493;28;20025;-74
2023/12/14 11:54:26;;;;;;;34.00;19.15;;;;;;;;;;5077560;28;20101;-74
2023/12/14 11:56:54;;;;;;;36.13;20.13;;;;;;;;;;5085283;28;20594;-74
2023/12/14 11:59:21;;;;;;;31.20;19.48;;;;;;;;;;5084551;28;20089;-74
2023/12/14 12:01:56;;;;;;;36.65;19.60;;;;;;;;;;5084292;28;20035;-73
2023/12/14 12:04:25;;;;;;;35.55;20.40;;;;;;;;;;5082806;28;20688;-74
2023/12/14 12:07:01;;;;;;;37.38;21.55;;;;;;;;;;5082543;28;20100;-74
2023/12/14 12:09:33;;;;;;;34.50;20.17;;;;;;;;;;5074497;28;20021;-74
2023/12/14 12:12:00;;;;;;;37.72;20.90;;;;;;;;;;5083761;28;20020;-74
2023/12/14 12:14:27;;;;;;;36.35;19.77;;;;;;;;;;5082331;28;20051;-74
2023/12/14 12:16:55;;;;;;;33.60;20.13;;;;;;;;;;5082158;28;20481;-74
2023/12/14 12:19:21;;;;;;;35.63;20.98;;;;;;;;;;5083538;28;20042;-75
2023/12/14 12:21:48;;;;;;;37.50;21.70;;;;;;;;;;5082414;28;20470;-74
2023/12/14 12:24:15;;;;;;;35.05;21.05;;;;;;;;;;5084029;28;20064;-74
2023/12/14 12:26:42;;;;;;;37.15;22.20;;;;;;;;;;5087763;28;20036;-75
2023/12/14 12:29:08;;;;;;;35.78;21.00;;;;;;;;;;5086473;28;20052;-75
2023/12/14 12:31:36;;;;;;;35.85;21.23;;;;;;;;;;5085583;28;20470;-73
2023/12/14 12:34:03;;;;;;;36.30;21.40;;;;;;;;;;5081014;28;20039;-74
2023/12/14 12:36:30;;;;;;;37.80;21.52;;;;;;;;;;5089758;28;20523;-74
2023/12/14 12:38:58;;;;;;;38.83;22.13;;;;;;;;;;5079502;28;20031;-74
2023/12/14 12:41:25;;;;;;;38.67;22.52;;;;;;;;;;5092652;28;20044;-74
2023/12/14 12:43:53;;;;;;;39.33;22.25;;;;;;;;;;5084439;28;20082;-74